createdAt,value
2023-04-15T00:02:00.713Z,14.57
2023-04-15T00:07:02.968Z,14.68
2023-04-15T00:09:36.244Z,14.32
2023-04-15T00:12:03.646Z,15.95
2023-04-15T00:14:30.781Z,16.23
2023-04-15T00:17:04.349Z,15.98
2023-04-15T00:19:32.494Z,16.35
2023-04-15T00:22:08.334Z,15.85
2023-04-15T00:24:35.542Z,15.73
2023-04-15T00:27:03.604Z,16.08
2023-04-15T00:29:38.247Z,16.95
2023-04-15T00:32:12.847Z,16.17
2023-04-15T00:34:46.312Z,14.32
2023-04-15T00:37:17.263Z,13.90
2023-04-15T00:39:45.153Z,15.13
2023-04-15T00:42:20.252Z,14.00
2023-04-15T00:44:54.226Z,13.25
2023-04-15T00:47:29.314Z,13.35
2023-04-15T00:49:56.634Z,13.85
2023-04-15T00:52:37.325Z,11.95
2023-04-15T00:55:05.392Z,12.55
2023-04-15T00:57:33.241Z,12.13
2023-04-15T01:00:08.287Z,12.30
2023-04-15T01:02:36.600Z,11.75
2023-04-15T01:05:05.962Z,10.38
2023-04-15T01:07:39.234Z,12.55
2023-04-15T01:10:06.629Z,11.90
2023-04-15T01:12:41.348Z,11.57
2023-04-15T01:15:09.449Z,11.70
2023-04-15T01:17:43.389Z,11.77
2023-04-15T01:20:12.158Z,12.73
2023-04-15T01:22:39.496Z,10.65
2023-04-15T01:25:15.273Z,13.15
2023-04-15T01:27:42.815Z,12.15
2023-04-15T01:33:07.184Z,11.63
2023-04-15T01:35:41.251Z,11.50
2023-04-15T01:38:10.060Z,11.68
2023-04-15T01:40:43.273Z,10.90
2023-04-15T01:43:11.787Z,11.82
2023-04-15T01:45:45.361Z,12.02
2023-04-15T01:48:12.570Z,12.27
2023-04-15T01:50:39.779Z,12.80
2023-04-15T01:53:13.341Z,11.43
2023-04-15T01:55:41.260Z,11.93
2023-04-15T01:58:15.424Z,11.63
2023-04-15T02:00:42.811Z,12.15
2023-04-15T02:03:10.157Z,10.88
2023-04-15T02:05:44.267Z,11.50
2023-04-15T02:08:12.170Z,11.93
2023-04-15T02:10:46.345Z,13.27
2023-04-15T02:13:13.900Z,11.70
2023-04-15T02:18:14.443Z,12.27
2023-04-15T02:20:41.617Z,12.25
2023-04-15T02:23:08.819Z,11.45
2023-04-15T02:25:42.340Z,11.48
2023-04-15T02:28:21.008Z,11.43
2023-04-15T02:30:57.477Z,11.27
2023-04-15T02:33:32.360Z,12.00
2023-04-15T02:36:06.315Z,12.23
2023-04-15T02:38:33.500Z,11.65
2023-04-15T02:41:00.585Z,11.40
2023-04-15T02:43:34.319Z,11.25
2023-04-15T02:46:01.538Z,11.73
2023-04-15T02:48:35.301Z,12.80
2023-04-15T02:51:12.329Z,11.82
2023-04-15T02:53:46.407Z,11.02
2023-04-15T02:56:15.313Z,12.18
2023-04-15T02:58:42.845Z,11.68
2023-04-15T03:03:43.582Z,11.25
2023-04-15T03:06:17.367Z,11.93
2023-04-15T03:08:44.592Z,12.65
2023-04-15T03:11:12.414Z,11.95
2023-04-15T03:13:48.365Z,10.98
2023-04-15T03:16:18.932Z,13.15
2023-04-15T03:18:46.321Z,11.60
2023-04-15T03:21:20.537Z,12.00
2023-04-15T03:23:47.749Z,11.68
2023-04-15T03:26:41.286Z,12.95
2023-04-15T03:29:08.479Z,11.35
2023-04-15T03:31:42.479Z,11.15
2023-04-15T03:34:16.421Z,10.68
2023-04-15T03:36:50.319Z,12.13
2023-04-15T03:39:24.252Z,11.55
2023-04-15T03:41:51.424Z,11.45
2023-04-15T03:44:18.607Z,12.82
2023-04-15T03:46:52.380Z,11.73
2023-04-15T03:49:19.970Z,11.80
2023-04-15T03:54:23.827Z,11.50
2023-04-15T03:56:51.021Z,12.55
2023-04-15T03:59:24.293Z,12.75
2023-04-15T04:01:51.995Z,12.60
2023-04-15T04:04:25.463Z,12.18
2023-04-15T04:06:52.707Z,12.15
2023-04-15T04:09:19.807Z,12.43
2023-04-15T04:11:53.315Z,11.93
2023-04-15T04:14:20.595Z,11.75
2023-04-15T04:16:54.410Z,13.80
2023-04-15T04:19:21.650Z,12.82
2023-04-15T04:21:48.744Z,12.10
2023-04-15T04:24:24.285Z,12.32
2023-04-15T04:26:51.514Z,11.93
2023-04-15T04:29:25.313Z,14.40
2023-04-15T04:31:59.288Z,12.02
2023-04-15T04:34:40.526Z,11.65
2023-04-15T04:37:07.674Z,12.40
2023-04-15T04:39:34.772Z,12.77
2023-04-15T04:42:09.309Z,11.15
2023-04-15T04:44:36.545Z,12.25
2023-04-15T04:47:10.368Z,12.23
2023-04-15T04:49:37.773Z,12.63
2023-04-15T04:52:04.910Z,12.38
2023-04-15T04:54:38.303Z,12.20
2023-04-15T04:57:05.552Z,11.35
2023-04-15T04:59:39.318Z,11.68
2023-04-15T05:02:06.629Z,12.05
2023-04-15T05:04:34.463Z,11.93
2023-04-15T05:07:08.402Z,12.15
2023-04-15T05:09:36.805Z,10.98
2023-04-15T05:12:14.379Z,12.10
2023-04-15T05:14:42.357Z,11.38
2023-04-15T05:17:09.826Z,12.02
2023-04-15T05:22:10.693Z,11.57
2023-04-15T05:24:44.442Z,10.30
2023-04-15T05:27:11.869Z,11.30
2023-04-15T05:29:39.072Z,11.00
2023-04-15T05:32:13.297Z,10.02
2023-04-15T05:34:47.309Z,11.05
2023-04-15T05:37:21.380Z,10.10
2023-04-15T05:39:49.155Z,9.80
2023-04-15T05:42:16.737Z,9.80
2023-04-15T05:47:17.516Z,9.82
2023-04-15T05:49:44.718Z,10.10
2023-04-15T05:52:18.325Z,10.25
2023-04-15T05:54:45.687Z,10.95
2023-04-15T05:57:19.533Z,10.68
2023-04-15T05:59:46.733Z,9.77
2023-04-15T06:02:13.956Z,10.25
2023-04-15T06:04:47.396Z,9.77
2023-04-15T06:07:14.697Z,10.65
2023-04-15T06:09:41.786Z,10.02
2023-04-15T06:12:18.605Z,9.23
2023-04-15T06:14:45.850Z,9.73
2023-04-15T06:17:15.057Z,9.45
2023-04-15T06:19:49.393Z,9.88
2023-04-15T06:22:16.796Z,10.20
2023-04-15T06:24:50.352Z,9.55
2023-04-15T06:27:17.613Z,9.20
2023-04-15T06:29:44.783Z,9.68
2023-04-15T06:32:19.323Z,9.95
2023-04-15T06:34:53.220Z,10.00
2023-04-15T06:37:27.555Z,10.50
2023-04-15T06:39:54.711Z,9.88
2023-04-15T06:42:21.841Z,9.45
2023-04-15T06:44:55.489Z,9.77
2023-04-15T06:47:22.826Z,9.63
2023-04-15T06:49:49.957Z,11.35
2023-04-15T06:52:23.339Z,9.40
2023-04-15T06:54:50.565Z,10.18
2023-04-15T06:57:17.886Z,10.43
2023-04-15T06:59:51.322Z,9.77
2023-04-15T07:02:18.791Z,10.50
2023-04-15T07:07:19.833Z,10.70
2023-04-15T07:09:47.341Z,10.10
2023-04-15T07:14:49.425Z,9.57
2023-04-15T07:17:23.456Z,10.80
2023-04-15T07:19:50.743Z,9.80
2023-04-15T07:22:17.826Z,9.05
2023-04-15T07:24:51.328Z,8.40
2023-04-15T07:27:18.540Z,10.70
2023-04-15T07:29:52.388Z,10.18
2023-04-15T07:32:26.568Z,10.55
2023-04-15T07:35:06.460Z,9.85
2023-04-15T07:37:33.722Z,9.88
2023-04-15T07:40:00.895Z,9.82
2023-04-15T07:42:35.348Z,9.50
2023-04-15T07:45:02.591Z,10.07
2023-04-15T07:47:36.447Z,10.40
2023-04-15T07:50:03.912Z,10.45
2023-04-15T07:52:31.337Z,8.95
2023-04-15T07:55:05.355Z,9.95
2023-04-15T07:57:32.613Z,10.32
2023-04-15T08:00:07.555Z,10.43
2023-04-15T08:02:39.687Z,10.05
2023-04-15T08:05:14.544Z,9.80
2023-04-15T08:07:41.743Z,9.40
2023-04-15T08:10:09.565Z,9.82
2023-04-15T08:12:43.363Z,8.93
2023-04-15T08:15:10.759Z,9.38
2023-04-15T08:17:37.951Z,8.68
2023-04-15T08:20:12.462Z,9.15
2023-04-15T08:22:40.069Z,8.82
2023-04-15T08:25:07.297Z,9.05
2023-04-15T08:27:41.521Z,8.80
2023-04-15T08:30:09.121Z,9.07
2023-04-15T08:35:16.422Z,9.13
2023-04-15T08:37:50.435Z,9.45
2023-04-15T08:40:17.691Z,9.82
2023-04-15T08:42:52.354Z,9.25
2023-04-15T08:45:20.618Z,8.45
2023-04-15T08:47:55.502Z,9.35
2023-04-15T08:50:23.362Z,8.93
2023-04-15T08:52:50.453Z,9.20
2023-04-15T08:55:24.391Z,8.90
2023-04-15T08:57:51.979Z,9.02
2023-04-15T09:02:53.040Z,8.20
2023-04-15T09:05:21.527Z,8.35
2023-04-15T09:07:55.446Z,8.18
2023-04-15T09:10:23.191Z,8.77
2023-04-15T09:12:57.513Z,8.20
2023-04-15T09:15:27.449Z,8.00
2023-04-15T09:17:54.617Z,8.85
2023-04-15T09:20:28.505Z,8.90
2023-04-15T09:22:55.654Z,8.55
2023-04-15T09:25:22.724Z,8.57
2023-04-15T09:27:57.474Z,8.02
2023-04-15T09:30:24.836Z,8.27
2023-04-15T09:32:56.516Z,7.97
2023-04-15T09:35:36.366Z,7.45
2023-04-15T09:38:14.326Z,6.82
2023-04-15T09:40:42.594Z,7.60
2023-04-15T09:43:12.817Z,7.25
2023-04-15T09:45:54.407Z,7.53
2023-04-15T09:48:22.741Z,7.20
2023-04-15T09:50:57.387Z,7.00
2023-04-15T09:53:25.416Z,7.07
2023-04-15T09:55:52.564Z,7.03
2023-04-15T09:58:30.432Z,7.53
2023-04-15T10:00:58.517Z,6.68
2023-04-15T10:03:45.504Z,7.38
2023-04-15T10:06:13.106Z,7.15
2023-04-15T10:08:48.561Z,7.00
2023-04-15T10:11:16.605Z,6.97
2023-04-15T10:13:44.002Z,7.20
2023-04-15T10:16:24.576Z,7.55
2023-04-15T10:18:54.879Z,7.28
2023-04-15T10:21:30.433Z,7.10
2023-04-15T10:23:57.902Z,6.80
2023-04-15T10:26:25.685Z,7.43
2023-04-15T10:29:00.427Z,7.68
2023-04-15T10:31:27.706Z,7.18
2023-04-15T10:34:01.537Z,6.97
2023-04-15T10:36:35.360Z,6.78
2023-04-15T10:39:09.593Z,7.05
2023-04-15T10:41:37.837Z,7.30
2023-04-15T10:44:05.715Z,6.78
2023-04-15T10:46:45.477Z,6.75
2023-04-15T10:49:17.133Z,6.55
2023-04-15T10:51:52.533Z,7.10
2023-04-15T10:54:25.787Z,7.15
2023-04-15T10:57:00.539Z,7.60
2023-04-15T10:59:30.132Z,7.18
2023-04-15T11:02:11.466Z,6.90
2023-04-15T11:05:07.342Z,6.45
2023-04-15T11:07:34.973Z,6.57
2023-04-15T11:10:09.533Z,6.30
2023-04-15T11:12:37.155Z,6.72
2023-04-15T11:17:38.500Z,6.47
2023-04-15T11:20:13.344Z,6.93
2023-04-15T11:22:47.730Z,6.82
2023-04-15T11:25:35.337Z,5.80
2023-04-15T11:28:03.286Z,6.73
2023-04-15T11:33:14.112Z,6.25
2023-04-15T11:35:54.360Z,6.13
2023-04-15T11:38:29.527Z,6.55
2023-04-15T11:41:03.372Z,6.00
2023-04-15T11:43:32.759Z,6.00
2023-04-15T11:46:01.281Z,5.50
2023-04-15T11:48:39.416Z,6.22
2023-04-15T11:51:07.563Z,6.15
2023-04-15T11:53:45.424Z,5.18
2023-04-15T11:56:17.727Z,5.90
2023-04-15T11:58:52.428Z,5.22
2023-04-15T12:01:19.777Z,5.75
2023-04-15T12:03:47.523Z,5.88
2023-04-15T12:06:23.449Z,5.70
2023-04-15T12:08:56.550Z,5.70
2023-04-15T12:11:36.449Z,5.32
2023-04-15T12:14:08.220Z,5.32
2023-04-15T12:16:49.709Z,5.20
2023-04-15T12:19:37.035Z,5.32
2023-04-15T12:22:10.410Z,5.07
2023-04-15T12:24:38.112Z,5.47
2023-04-15T12:27:12.521Z,4.50
2023-04-15T12:29:40.333Z,5.10
2023-04-15T12:32:15.496Z,5.40
2023-04-15T12:34:50.490Z,4.93
2023-04-15T12:37:30.484Z,5.88
2023-04-15T12:39:57.665Z,5.72
2023-04-15T12:42:31.460Z,5.78
2023-04-15T12:44:58.686Z,4.50
2023-04-15T12:47:26.143Z,5.47
2023-04-15T12:50:00.429Z,5.50
2023-04-15T12:52:27.637Z,4.88
2023-04-15T12:55:01.477Z,5.10
2023-04-15T12:57:28.633Z,4.70
2023-04-15T12:59:56.124Z,4.60
2023-04-15T13:04:58.907Z,5.35
2023-04-15T13:07:32.480Z,4.10
2023-04-15T13:09:59.648Z,4.50
2023-04-15T13:12:27.482Z,4.53
2023-04-15T13:15:02.443Z,4.22
2023-04-15T13:17:31.040Z,4.25
2023-04-15T13:20:04.491Z,4.80
2023-04-15T13:22:31.726Z,4.90
2023-04-15T13:24:58.799Z,4.32
2023-04-15T13:27:32.431Z,4.18
2023-04-15T13:30:14.437Z,4.00
2023-04-15T13:32:54.662Z,4.18
2023-04-15T13:35:28.478Z,4.65
2023-04-15T13:38:02.601Z,4.35
2023-04-15T13:40:36.375Z,3.88
2023-04-15T13:43:19.082Z,3.90
2023-04-15T13:45:47.375Z,4.05
2023-04-15T13:48:23.613Z,4.35
2023-04-15T13:50:50.976Z,4.82
2023-04-15T13:53:28.240Z,4.55
2023-04-15T13:56:12.818Z,4.80
2023-04-15T13:58:41.314Z,5.00
2023-04-15T14:01:08.710Z,3.92
2023-04-15T14:03:42.845Z,4.18
2023-04-15T14:06:10.429Z,4.03
2023-04-15T14:11:11.475Z,4.50
2023-04-15T14:13:38.678Z,4.00
2023-04-15T14:16:12.528Z,4.68
2023-04-15T14:18:40.731Z,4.18
2023-04-15T14:21:07.815Z,4.35
2023-04-15T14:23:41.508Z,5.10
2023-04-15T14:26:08.688Z,4.47
2023-04-15T14:28:42.530Z,4.30
2023-04-15T14:31:09.756Z,5.25
2023-04-15T14:33:43.500Z,4.70
2023-04-15T14:36:17.739Z,4.80
2023-04-15T14:38:51.569Z,3.65
2023-04-15T14:41:18.787Z,4.43
2023-04-15T14:43:45.934Z,3.97
2023-04-15T14:46:20.517Z,4.53
2023-04-15T14:48:47.789Z,5.05
2023-04-15T14:51:22.513Z,4.60
2023-04-15T14:53:49.698Z,4.53
2023-04-15T14:56:16.954Z,5.45
2023-04-15T14:58:50.531Z,4.05
2023-04-15T15:01:17.720Z,5.10
2023-04-15T15:03:51.563Z,4.28
2023-04-15T15:06:18.910Z,4.25
2023-04-15T15:08:46.982Z,5.13
2023-04-15T15:11:20.455Z,4.90
2023-04-15T15:13:47.693Z,4.97
2023-04-15T15:16:21.601Z,5.13
2023-04-15T15:18:48.845Z,4.20
2023-04-15T15:21:15.960Z,4.70
2023-04-15T15:23:49.490Z,5.13
2023-04-15T15:26:16.979Z,4.88
2023-04-15T15:31:19.654Z,4.65
2023-04-15T15:34:00.614Z,4.60
2023-04-15T15:36:34.398Z,4.20
2023-04-15T15:39:08.936Z,3.80
2023-04-15T15:41:37.017Z,4.15
2023-04-15T15:44:04.315Z,4.25
2023-04-15T15:46:38.517Z,4.63
2023-04-15T15:49:06.190Z,4.07
2023-04-15T15:51:40.671Z,4.70
2023-04-15T15:54:07.820Z,4.07
2023-04-15T15:56:35.132Z,4.00
2023-04-15T15:59:08.600Z,4.30
2023-04-15T16:01:35.916Z,4.03
2023-04-15T16:04:09.701Z,3.70
2023-04-15T16:06:37.116Z,3.72
2023-04-15T16:09:04.656Z,4.10
2023-04-15T16:11:38.609Z,4.20
2023-04-15T16:14:05.853Z,4.50
2023-04-15T16:16:32.977Z,3.53
2023-04-15T16:19:07.011Z,3.70
2023-04-15T16:21:35.017Z,4.32
2023-04-15T16:24:02.717Z,4.35
2023-04-15T16:26:36.532Z,4.10
2023-04-15T16:29:04.259Z,3.67
2023-04-15T16:31:31.578Z,3.92
2023-04-15T16:34:05.633Z,3.90
2023-04-15T16:36:41.561Z,4.38
2023-04-15T16:39:15.566Z,3.92
2023-04-15T16:41:42.876Z,3.88
2023-04-15T16:44:17.538Z,4.38
2023-04-15T16:46:44.722Z,3.80
2023-04-15T16:49:11.925Z,4.03
2023-04-15T16:51:45.614Z,4.28
2023-04-15T16:54:12.776Z,4.22
2023-04-15T16:56:46.734Z,4.78
2023-04-15T16:59:13.880Z,4.20
2023-04-15T17:01:41.102Z,4.40
2023-04-15T17:04:14.602Z,4.68
2023-04-15T17:06:41.866Z,4.45
2023-04-15T17:09:15.665Z,4.45
2023-04-15T17:11:44.491Z,4.57
2023-04-15T17:14:11.846Z,4.60
2023-04-15T17:16:45.588Z,4.10
2023-04-15T17:19:12.979Z,4.68
2023-04-15T17:21:46.542Z,4.50
2023-04-15T17:24:14.026Z,4.85
2023-04-15T17:26:41.248Z,4.93
2023-04-15T17:29:14.710Z,4.80
2023-04-15T17:31:42.125Z,4.50
2023-04-15T17:36:50.526Z,4.13
2023-04-15T17:39:17.854Z,5.03
2023-04-15T17:41:51.700Z,4.55
2023-04-15T17:44:19.344Z,4.80
2023-04-15T17:46:46.567Z,4.90
2023-04-15T17:49:20.795Z,4.85
2023-04-15T17:51:47.949Z,4.43
2023-04-15T17:54:15.088Z,5.00
2023-04-15T17:56:48.533Z,4.60
2023-04-15T17:59:16.287Z,5.20
2023-04-15T18:01:49.661Z,4.60
2023-04-15T18:04:16.985Z,5.20
2023-04-15T18:06:44.140Z,4.70
2023-04-15T18:09:17.546Z,4.70
2023-04-15T18:11:45.379Z,4.95
2023-04-15T18:14:32.962Z,5.25
2023-04-15T18:17:01.883Z,4.82
2023-04-15T18:19:35.526Z,4.80
2023-04-15T18:22:03.990Z,4.45
2023-04-15T18:24:31.367Z,4.90
2023-04-15T18:27:05.507Z,5.20
2023-04-15T18:29:32.773Z,5.10
2023-04-15T18:32:06.720Z,5.15
2023-04-15T18:34:42.783Z,4.90
2023-04-15T18:37:22.772Z,5.20
2023-04-15T18:39:49.930Z,5.45
2023-04-15T18:42:17.109Z,4.55
2023-04-15T18:44:50.637Z,4.80
2023-04-15T18:47:17.949Z,5.43
2023-04-15T18:49:45.278Z,5.32
2023-04-15T18:52:19.550Z,5.18
2023-04-15T18:54:46.694Z,5.30
2023-04-15T18:57:26.016Z,5.43
2023-04-15T19:00:02.082Z,4.68
2023-04-15T19:05:10.482Z,5.40
2023-04-15T19:07:38.040Z,5.13
2023-04-15T19:12:40.511Z,4.47
2023-04-15T19:15:07.922Z,4.93
2023-04-15T19:17:41.623Z,4.90
2023-04-15T19:20:09.014Z,5.60
2023-04-15T19:22:36.730Z,4.90
2023-04-15T19:25:11.572Z,5.15
2023-04-15T19:27:38.716Z,4.75
2023-04-15T19:30:13.704Z,4.72
2023-04-15T19:32:41.020Z,5.80
2023-04-15T19:35:21.560Z,5.80
2023-04-15T19:37:55.523Z,5.78
2023-04-15T19:40:22.669Z,5.03
2023-04-15T19:42:49.887Z,5.30
2023-04-15T19:45:23.572Z,5.65
2023-04-15T19:47:50.896Z,5.15
2023-04-15T19:50:25.602Z,5.68
2023-04-15T19:52:53.088Z,5.25
2023-04-15T19:57:53.573Z,5.63
2023-04-15T20:00:20.877Z,5.88
2023-04-15T20:02:54.760Z,4.97
2023-04-15T20:05:22.058Z,5.50
2023-04-15T20:07:59.894Z,5.82
2023-04-15T20:10:27.516Z,5.40
2023-04-15T20:12:54.677Z,5.72
2023-04-15T20:15:29.721Z,5.50
2023-04-15T20:17:57.022Z,5.45
2023-04-15T20:20:24.180Z,5.05
2023-04-15T20:22:59.566Z,5.53
2023-04-15T20:25:26.915Z,5.35
2023-04-15T20:28:01.185Z,5.85
2023-04-15T20:30:29.217Z,5.70
2023-04-15T20:32:56.459Z,5.45
2023-04-15T20:35:31.646Z,5.80
2023-04-15T20:38:05.744Z,5.35
2023-04-15T20:40:41.773Z,6.25
2023-04-15T20:43:09.195Z,5.53
2023-04-15T20:45:36.562Z,5.75
2023-04-15T20:48:10.720Z,5.43
2023-04-15T20:50:39.026Z,6.40
2023-04-15T20:53:12.722Z,6.03
2023-04-15T20:55:39.990Z,5.57
2023-04-15T20:58:07.187Z,5.65
2023-04-15T21:00:40.698Z,5.80
2023-04-15T21:03:08.072Z,5.20
2023-04-15T21:05:41.694Z,5.57
2023-04-15T21:08:08.988Z,5.80
2023-04-15T21:10:36.146Z,5.82
2023-04-15T21:13:09.621Z,5.47
2023-04-15T21:15:36.839Z,5.38
2023-04-15T21:18:10.763Z,5.57
2023-04-15T21:20:37.961Z,6.03
2023-04-15T21:23:05.158Z,5.35
2023-04-15T21:25:38.677Z,5.63
2023-04-15T21:28:05.941Z,5.82
2023-04-15T21:30:33.076Z,6.07
2023-04-15T21:33:06.752Z,5.13
2023-04-15T21:35:40.710Z,5.78
2023-04-15T21:38:23.524Z,5.70
2023-04-15T21:40:51.062Z,5.95
2023-04-15T21:43:27.620Z,5.25
2023-04-15T21:46:24.308Z,6.43
2023-04-15T21:48:55.697Z,5.50
2023-04-15T21:51:23.024Z,5.10
2023-04-15T21:53:50.133Z,5.38
2023-04-15T21:56:23.741Z,5.72
2023-04-15T21:58:51.269Z,5.43
2023-04-15T22:03:52.167Z,6.35
2023-04-15T22:08:58.642Z,5.45
2023-04-15T22:11:30.689Z,5.90
2023-04-15T22:14:12.781Z,6.00
2023-04-15T22:16:39.968Z,5.47
2023-04-15T22:19:07.587Z,6.20
2023-04-15T22:21:41.607Z,5.95
2023-04-15T22:24:33.584Z,5.75
2023-04-15T22:27:03.986Z,5.70
2023-04-15T22:29:31.167Z,5.90
2023-04-15T22:31:58.558Z,6.00
2023-04-15T22:34:32.597Z,5.63
2023-04-15T22:37:06.924Z,5.50
2023-04-15T22:39:40.717Z,5.72
2023-04-15T22:42:07.910Z,5.40
2023-04-15T22:44:35.018Z,5.70
2023-04-15T22:47:08.639Z,6.10
2023-04-15T22:49:36.236Z,6.35
2023-04-15T22:54:41.826Z,5.53
2023-04-15T22:57:08.908Z,5.97
2023-04-15T22:59:42.684Z,5.90
2023-04-15T23:02:09.980Z,5.28
2023-04-15T23:04:37.310Z,6.20
2023-04-15T23:07:11.656Z,5.85
2023-04-15T23:09:39.421Z,6.25
2023-04-15T23:12:18.493Z,7.18
2023-04-15T23:14:45.744Z,6.30
2023-04-15T23:17:26.848Z,6.00
2023-04-15T23:19:54.053Z,6.05
2023-04-15T23:22:21.152Z,5.88
2023-04-15T23:24:54.864Z,5.80
2023-04-15T23:27:22.839Z,5.93
2023-04-15T23:29:56.767Z,5.60
2023-04-15T23:32:24.016Z,6.07
2023-04-15T23:35:04.765Z,5.63
2023-04-15T23:37:38.615Z,5.03
2023-04-15T23:40:12.757Z,6.00
2023-04-15T23:42:46.552Z,5.65
2023-04-15T23:45:13.805Z,6.10
2023-04-15T23:47:47.716Z,6.07
2023-04-15T23:50:14.962Z,5.80
2023-04-15T23:52:42.116Z,4.97
2023-04-15T23:55:15.671Z,5.00
2023-04-15T23:57:42.770Z,4.93
